Time;durP1;ratioP1;P1;durP2;ratioP2;P2;SDS_P1;SDS_P2;PMS_P1;PMS_P2;Temp;Humidity;BMP_temperature;BMP_pressure;BME280_temperature;BME280_humidity;BME280_pressure;Samples;Min_cycle;Max_cycle;Signal;HPM_P1;HPM_P2
2023/06/20 00:02:49;;;;;;;19.07;17.60;;;20.60;63.70;;;;;;6267985;28;20705;-84
2023/06/20 00:05:53;;;;;;;17.83;16.63;;;20.50;63.80;;;;;;6275090;28;20239;-83
2023/06/20 00:08:57;;;;;;;18.93;17.53;;;20.50;63.80;;;;;;6261808;28;20234;-84
2023/06/20 00:12:00;;;;;;;21.07;19.20;;;20.50;63.70;;;;;;6258893;28;20292;-84
2023/06/20 00:15:04;;;;;;;17.63;16.33;;;20.50;63.80;;;;;;6264402;28;20292;-84
2023/06/20 00:18:09;;;;;;;17.93;16.63;;;20.50;63.80;;;;;;6280192;28;20620;-85
2023/06/20 00:21:13;;;;;;;17.43;16.13;;;20.50;63.90;;;;;;6275763;28;20330;-84
2023/06/20 00:24:18;;;;;;;17.63;16.33;;;20.40;64.00;;;;;;6271604;28;20742;-83
2023/06/20 00:27:21;;;;;;;16.77;15.57;;;20.30;64.10;;;;;;6275595;28;20238;-85
2023/06/20 00:30:24;;;;;;;16.83;15.63;;;20.30;64.10;;;;;;6267724;28;20372;-85
2023/06/20 00:33:27;;;;;;;18.07;16.73;;;20.30;64.00;;;;;;6280134;28;20242;-84
2023/06/20 00:36:30;;;;;;;17.77;16.37;;;20.30;64.20;;;;;;6258564;28;20265;-83
2023/06/20 00:39:34;;;;;;;17.87;16.57;;;20.20;64.20;;;;;;6269755;28;20359;-82
2023/06/20 00:42:37;;;;;;;17.90;16.70;;;20.20;64.10;;;;;;6270122;28;20226;-84
2023/06/20 00:45:40;;;;;;;17.97;16.70;;;20.30;64.40;;;;;;6283857;28;20899;-84
2023/06/20 00:48:44;;;;;;;18.47;17.07;;;20.20;64.60;;;;;;6268065;28;20233;-85
2023/06/20 00:51:47;;;;;;;21.30;19.50;;;20.20;64.60;;;;;;6263614;28;20920;-82
2023/06/20 00:54:52;;;;;;;19.30;17.80;;;20.30;65.10;;;;;;6269595;28;20733;-82
2023/06/20 00:57:58;;;;;;;19.07;17.67;;;20.10;65.10;;;;;;6271336;28;20242;-84
2023/06/20 01:01:01;;;;;;;20.63;19.13;;;20.10;65.10;;;;;;6269872;28;20293;-82
2023/06/20 01:04:05;;;;;;;19.23;17.77;;;20.10;65.10;;;;;;6257567;28;20234;-85
2023/06/20 01:07:17;;;;;;;19.10;17.60;;;20.10;65.00;;;;;;6270104;28;20316;-84
2023/06/20 01:10:35;;;;;;;17.30;16.00;;;20.10;65.00;;;;;;6253350;28;20265;-85
2023/06/20 01:13:47;;;;;;;18.20;16.90;;;20.00;64.90;;;;;;6275488;28;20278;-84
2023/06/20 01:16:58;;;;;;;20.73;18.93;;;20.00;64.90;;;;;;6276523;28;20241;-84
2023/06/20 01:20:07;;;;;;;20.93;19.33;;;20.00;65.00;;;;;;6270547;28;20246;-85
2023/06/20 01:23:14;;;;;;;19.73;18.23;;;20.00;64.90;;;;;;6283559;28;20246;-85
2023/06/20 01:26:27;;;;;;;22.53;20.53;;;20.00;65.10;;;;;;6283096;28;20301;-82
2023/06/20 01:29:36;;;;;;;20.90;19.10;;;19.90;65.20;;;;;;6261223;28;20388;-83
2023/06/20 01:32:44;;;;;;;20.80;19.20;;;19.90;65.10;;;;;;6280418;28;20371;-84
2023/06/20 01:35:48;;;;;;;19.47;18.07;;;19.90;65.00;;;;;;6270229;28;20320;-82
2023/06/20 01:38:58;;;;;;;19.37;17.97;;;19.90;65.00;;;;;;6283933;28;20313;-85
2023/06/20 01:42:04;;;;;;;19.07;17.67;;;19.90;65.10;;;;;;6265742;28;20766;-81
2023/06/20 01:45:11;;;;;;;18.63;17.23;;;19.80;65.20;;;;;;6270262;28;20237;-84
2023/06/20 01:48:16;;;;;;;18.63;17.33;;;19.70;65.30;;;;;;6274771;28;20226;-81
2023/06/20 01:51:20;;;;;;;18.60;17.23;;;19.70;65.40;;;;;;6274602;28;20393;-84
2023/06/20 01:54:27;;;;;;;19.30;17.90;;;19.70;65.50;;;;;;6273252;28;20238;-86
2023/06/20 01:57:31;;;;;;;20.53;19.03;;;19.70;65.60;;;;;;6276302;28;20248;-82
2023/06/20 02:00:36;;;;;;;19.53;18.00;;;19.60;65.70;;;;;;6277508;28;20246;-83
2023/06/20 02:03:41;;;;;;;20.43;18.73;;;19.50;65.90;;;;;;6283492;28;20629;-84
2023/06/20 02:06:48;;;;;;;19.93;18.43;;;19.50;66.30;;;;;;6278633;28;20229;-85
2023/06/20 02:09:54;;;;;;;21.80;20.27;;;19.50;66.50;;;;;;6273507;28;20237;-84
2023/06/20 02:12:58;;;;;;;20.80;19.10;;;19.50;66.40;;;;;;6273056;28;20250;-83
2023/06/20 02:16:03;;;;;;;22.77;20.87;;;19.50;66.40;;;;;;6282099;28;20288;-81
2023/06/20 02:19:07;;;;;;;21.60;20.00;;;19.50;66.30;;;;;;6270587;28;20242;-81
2023/06/20 02:22:14;;;;;;;20.07;18.57;;;19.50;66.30;;;;;;6290813;28;20316;-84
2023/06/20 02:25:22;;;;;;;19.80;18.30;;;19.50;66.20;;;;;;6283146;28;20233;-85
2023/06/20 02:28:29;;;;;;;19.83;18.33;;;19.50;66.10;;;;;;6288833;28;20232;-85
2023/06/20 02:31:36;;;;;;;20.27;18.77;;;19.50;66.20;;;;;;6295689;28;20249;-86
2023/06/20 02:34:43;;;;;;;18.23;17.00;;;19.50;66.50;;;;;;6293320;28;20237;-83
2023/06/20 02:37:48;;;;;;;17.87;16.47;;;19.50;66.50;;;;;;6290171;28;20237;-83
2023/06/20 02:40:53;;;;;;;19.57;18.17;;;19.40;66.70;;;;;;6273631;28;20286;-84
2023/06/20 02:43:56;;;;;;;21.00;19.37;;;19.40;67.10;;;;;;6264910;28;20706;-82
2023/06/20 02:47:09;;;;;;;20.53;18.90;;;19.40;67.20;;;;;;6280160;28;20330;-83
2023/06/20 02:50:19;;;;;;;21.33;19.63;;;19.30;67.50;;;;;;6286194;28;20233;-84
2023/06/20 02:53:28;;;;;;;18.20;16.80;;;19.30;67.50;;;;;;6266272;28;20238;-86
2023/06/20 02:56:39;;;;;;;20.33;18.63;;;19.30;67.60;;;;;;6255043;28;20235;-84
2023/06/20 02:59:45;;;;;;;18.50;16.93;;;19.30;67.80;;;;;;6277118;28;20249;-84
2023/06/20 03:02:52;;;;;;;19.20;17.80;;;19.30;67.80;;;;;;6281629;28;20772;-84
2023/06/20 03:05:58;;;;;;;19.60;18.00;;;19.20;68.00;;;;;;6270422;28;20749;-84
2023/06/20 03:09:02;;;;;;;18.87;17.23;;;19.30;68.20;;;;;;6266290;28;20234;-83
2023/06/20 03:16:29;;;;;;;18.93;17.50;;;19.20;68.10;;;;;;6273702;28;20238;-82
2023/06/20 03:19:49;;;;;;;18.47;17.17;;;19.20;68.20;;;;;;6263771;28;20227;-84
2023/06/20 03:23:09;;;;;;;19.20;17.80;;;19.20;68.20;;;;;;6268300;28;20235;-84
2023/06/20 03:26:13;;;;;;;19.87;18.47;;;19.20;68.10;;;;;;6280793;28;20901;-82
2023/06/20 03:29:16;;;;;;;22.80;20.90;;;19.20;68.00;;;;;;6280952;28;20864;-85
2023/06/20 03:32:21;;;;;;;22.97;21.00;;;19.30;68.10;;;;;;6252398;28;20252;-84
2023/06/20 03:35:24;;;;;;;20.07;18.57;;;19.30;68.20;;;;;;6266124;28;20241;-84
2023/06/20 03:38:28;;;;;;;19.73;18.33;;;19.30;68.20;;;;;;6269852;28;20229;-82
2023/06/20 03:41:32;;;;;;;18.80;17.33;;;19.40;68.20;;;;;;6268863;28;20246;-80
2023/06/20 03:44:35;;;;;;;19.87;18.37;;;19.50;68.10;;;;;;6265836;28;20233;-83
2023/06/20 03:47:39;;;;;;;19.63;18.03;;;19.50;68.00;;;;;;6265790;28;20250;-82
2023/06/20 03:50:42;;;;;;;19.70;18.20;;;19.70;67.70;;;;;;6271519;28;20302;-83
2023/06/20 03:53:45;;;;;;;18.67;17.37;;;19.80;67.40;;;;;;6267609;28;20286;-82
2023/06/20 03:56:49;;;;;;;18.40;17.00;;;19.90;67.20;;;;;;6276553;28;21389;-84
2023/06/20 03:59:52;;;;;;;19.43;17.93;;;20.00;67.00;;;;;;6263220;28;20487;-83
2023/06/20 04:02:56;;;;;;;21.53;19.77;;;20.00;66.80;;;;;;6266406;28;20257;-82
2023/06/20 04:06:01;;;;;;;23.27;21.47;;;20.00;66.70;;;;;;6271089;28;20235;-81
2023/06/20 04:09:04;;;;;;;21.73;19.93;;;20.10;66.60;;;;;;6261111;28;20606;-83
2023/06/20 04:12:08;;;;;;;21.67;20.07;;;20.10;66.50;;;;;;6274330;28;20233;-84
2023/06/20 04:15:12;;;;;;;26.20;23.87;;;20.10;66.30;;;;;;6275424;28;21090;-82
2023/06/20 04:18:16;;;;;;;23.77;21.83;;;20.10;66.10;;;;;;6276996;28;20721;-83
2023/06/20 04:21:19;;;;;;;22.33;20.53;;;20.20;66.10;;;;;;6280916;28;20242;-82
2023/06/20 04:24:22;;;;;;;22.53;20.73;;;20.30;65.90;;;;;;6269993;28;21473;-82
2023/06/20 04:27:26;;;;;;;24.17;22.07;;;20.40;65.60;;;;;;6269694;28;20230;-78
2023/06/20 04:30:29;;;;;;;23.57;21.67;;;20.50;65.40;;;;;;6262619;28;20797;-78
2023/06/20 04:33:34;;;;;;;21.50;19.87;;;20.70;65.20;;;;;;6266771;28;20298;-78
2023/06/20 04:36:37;;;;;;;22.97;21.10;;;20.80;65.10;;;;;;6260155;28;20333;-77
2023/06/20 04:39:40;;;;;;;23.47;21.57;;;21.00;65.00;;;;;;6267753;28;20224;-79
2023/06/20 04:42:45;;;;;;;26.13;23.73;;;21.10;64.50;;;;;;6262743;28;20318;-79
2023/06/20 04:45:48;;;;;;;23.50;21.70;;;21.20;63.90;;;;;;6254614;28;20237;-84
2023/06/20 04:48:53;;;;;;;24.83;22.73;;;21.30;63.70;;;;;;6249713;28;20371;-79
2023/06/20 04:51:58;;;;;;;24.97;22.87;;;21.40;63.90;;;;;;6265244;28;20636;-81
2023/06/20 04:55:02;;;;;;;26.37;24.17;;;21.50;63.80;;;;;;6270150;28;20248;-80
2023/06/20 04:58:06;;;;;;;27.27;24.87;;;21.50;63.20;;;;;;6284077;28;20751;-79
2023/06/20 05:01:09;;;;;;;28.43;25.97;;;21.50;63.00;;;;;;6285049;28;20355;-80
2023/06/20 05:04:13;;;;;;;28.40;26.00;;;21.50;62.90;;;;;;6264557;28;20223;-81
2023/06/20 05:07:17;;;;;;;25.77;23.60;;;21.50;63.00;;;;;;6279001;28;20852;-81
2023/06/20 05:10:21;;;;;;;25.30;23.20;;;21.50;63.10;;;;;;6270693;28;20737;-80
2023/06/20 05:13:24;;;;;;;24.73;22.53;;;21.60;63.10;;;;;;6275183;28;20609;-82
2023/06/20 05:16:27;;;;;;;25.63;23.60;;;21.70;63.00;;;;;;6281253;28;20296;-80
2023/06/20 05:19:33;;;;;;;27.73;25.10;;;21.70;63.00;;;;;;6266900;28;20293;-82
2023/06/20 05:22:36;;;;;;;28.40;26.00;;;21.60;62.70;;;;;;6271097;28;20238;-80
2023/06/20 05:25:39;;;;;;;25.87;23.70;;;21.50;62.70;;;;;;6278571;28;20618;-72
2023/06/20 05:28:42;;;;;;;24.30;22.40;;;21.50;62.80;;;;;;6264229;28;20367;-75
2023/06/20 05:31:45;;;;;;;25.50;23.37;;;21.50;63.00;;;;;;6266499;28;20241;-75
2023/06/20 05:34:50;;;;;;;20.60;19.07;;;21.50;63.20;;;;;;6269213;28;20306;-74
2023/06/20 05:37:53;;;;;;;20.87;19.13;;;21.60;63.30;;;;;;6280394;28;20245;-75
2023/06/20 05:40:57;;;;;;;22.17;20.47;;;21.60;63.10;;;;;;6266629;28;20237;-74
2023/06/20 05:44:00;;;;;;;23.33;21.53;;;21.70;63.30;;;;;;6259887;28;20699;-77
2023/06/20 05:47:04;;;;;;;24.37;22.23;;;21.70;63.20;;;;;;6282105;28;20267;-77
2023/06/20 05:50:10;;;;;;;26.30;24.03;;;21.90;63.10;;;;;;6278440;28;20231;-76
2023/06/20 05:53:13;;;;;;;27.80;25.43;;;21.90;62.80;;;;;;6261412;28;20879;-76
2023/06/20 05:56:17;;;;;;;24.20;22.40;;;22.00;62.50;;;;;;6265436;28;20421;-74
2023/06/20 05:59:20;;;;;;;25.27;23.20;;;22.10;62.50;;;;;;6270226;28;20368;-75
2023/06/20 06:02:23;;;;;;;24.60;22.53;;;22.20;62.10;;;;;;6249676;28;20388;-74
2023/06/20 06:05:27;;;;;;;27.13;24.60;;;22.30;62.00;;;;;;6263627;28;20282;-76
2023/06/20 06:08:30;;;;;;;26.77;24.10;;;22.50;61.80;;;;;;6261038;28;20241;-77
2023/06/20 06:11:36;;;;;;;25.30;22.87;;;22.80;61.20;;;;;;6263480;28;20249;-76
2023/06/20 06:14:41;;;;;;;26.40;24.17;;;23.40;60.60;;;;;;6274847;28;20234;-75
2023/06/20 06:17:44;;;;;;;28.73;26.03;;;23.90;59.60;;;;;;6263355;28;20767;-75
2023/06/20 06:20:49;;;;;;;26.80;24.23;;;24.20;58.40;;;;;;6269456;28;20373;-77
2023/06/20 06:23:52;;;;;;;26.07;23.50;;;24.40;58.00;;;;;;6277029;28;20299;-75
2023/06/20 06:26:55;;;;;;;25.33;23.10;;;24.50;57.80;;;;;;6272237;28;20371;-76
2023/06/20 06:29:58;;;;;;;29.67;27.27;;;24.50;57.60;;;;;;6271589;28;20234;-75
2023/06/20 06:33:03;;;;;;;26.73;24.30;;;24.60;57.70;;;;;;6269281;28;20246;-76
2023/06/20 06:36:08;;;;;;;29.00;26.43;;;24.70;58.20;;;;;;6261215;28;20317;-75
2023/06/20 06:39:13;;;;;;;28.03;25.67;;;25.00;57.20;;;;;;6261766;28;20253;-75
2023/06/20 06:42:15;;;;;;;26.10;23.53;;;25.30;56.20;;;;;;6276328;28;20316;-77
2023/06/20 06:45:19;;;;;;;30.33;27.57;;;25.60;55.90;;;;;;6273548;28;20890;-77
2023/06/20 06:48:22;;;;;;;28.23;25.63;;;26.00;54.80;;;;;;6276285;28;20668;-76
2023/06/20 06:51:26;;;;;;;25.03;22.97;;;26.50;55.30;;;;;;6263475;28;20997;-77
2023/06/20 06:54:29;;;;;;;25.63;23.50;;;26.80;54.70;;;;;;6265570;28;20317;-76
2023/06/20 06:57:33;;;;;;;28.83;26.13;;;27.00;54.40;;;;;;6269586;28;20245;-76
2023/06/20 07:00:36;;;;;;;29.43;26.57;;;27.20;54.40;;;;;;6267010;28;20292;-75
2023/06/20 07:03:39;;;;;;;32.93;27.63;;;27.30;53.80;;;;;;6265978;28;20315;-76
2023/06/20 07:06:44;;;;;;;31.23;28.23;;;27.10;54.20;;;;;;6262406;28;20289;-75
2023/06/20 07:09:47;;;;;;;28.20;25.33;;;27.30;53.10;;;;;;6269724;28;20263;-77
2023/06/20 07:12:50;;;;;;;31.07;27.90;;;27.30;53.00;;;;;;6261608;28;20614;-77
2023/06/20 07:15:56;;;;;;;32.30;28.93;;;27.20;53.10;;;;;;6272841;28;20334;-76
2023/06/20 07:18:59;;;;;;;31.03;27.87;;;26.80;53.20;;;;;;6272318;28;20483;-76
2023/06/20 07:22:05;;;;;;;31.40;28.27;;;26.60;53.80;;;;;;6273675;28;20237;-77
2023/06/20 07:25:08;;;;;;;27.70;25.30;;;26.50;54.00;;;;;;6264212;28;20268;-76
2023/06/20 07:28:12;;;;;;;29.40;26.73;;;26.40;54.30;;;;;;6266839;28;20226;-75
2023/06/20 07:31:18;;;;;;;28.17;25.47;;;26.40;55.00;;;;;;6263758;28;20237;-75
2023/06/20 07:34:21;;;;;;;29.00;26.37;;;26.40;55.00;;;;;;6262921;28;20252;-76
2023/06/20 07:37:25;;;;;;;32.57;29.47;;;26.50;55.10;;;;;;6275903;28;20307;-77
2023/06/20 07:40:29;;;;;;;27.37;24.53;;;26.50;54.70;;;;;;6269905;28;20714;-76
2023/06/20 07:43:32;;;;;;;28.23;25.43;;;26.40;55.20;;;;;;6271434;28;20726;-76
2023/06/20 07:46:35;;;;;;;34.20;30.33;;;26.40;55.30;;;;;;6273385;28;20234;-77
2023/06/20 07:49:38;;;;;;;29.73;26.37;;;26.40;55.90;;;;;;6262460;28;20368;-75
2023/06/20 07:52:45;;;;;;;28.33;25.83;;;26.40;55.40;;;;;;6277237;28;20229;-76
2023/06/20 07:55:48;;;;;;;33.83;30.90;;;26.30;56.10;;;;;;6272632;28;20356;-77
2023/06/20 07:58:50;;;;;;;30.43;27.90;;;26.40;56.60;;;;;;6265280;28;20282;-75
2023/06/20 08:01:54;;;;;;;33.33;30.33;;;26.60;56.50;;;;;;6259031;28;20241;-75
2023/06/20 08:04:57;;;;;;;28.23;25.80;;;26.50;55.40;;;;;;6281405;28;20308;-76
2023/06/20 08:08:01;;;;;;;30.00;27.27;;;26.80;55.60;;;;;;6266199;28;20295;-77
2023/06/20 08:11:04;;;;;;;28.27;25.73;;;27.20;55.10;;;;;;6256712;28;20273;-78
2023/06/20 08:14:07;;;;;;;31.13;28.17;;;27.30;55.00;;;;;;6277403;28;20746;-75
2023/06/20 08:17:13;;;;;;;29.27;26.53;;;27.40;54.60;;;;;;6273694;28;20306;-75
2023/06/20 08:20:17;;;;;;;27.93;25.43;;;27.30;54.20;;;;;;6277267;28;20244;-74
2023/06/20 08:23:25;;;;;;;26.07;23.63;;;27.30;54.30;;;;;;6271433;28;20257;-75
2023/06/20 08:26:28;;;;;;;28.27;25.90;;;27.30;54.80;;;;;;6259596;28;20234;-75
2023/06/20 08:29:32;;;;;;;31.17;27.80;;;27.20;54.60;;;;;;6277399;28;20288;-76
2023/06/20 08:32:36;;;;;;;28.37;25.93;;;27.10;54.50;;;;;;6270678;28;20741;-76
2023/06/20 08:35:39;;;;;;;29.83;27.23;;;27.00;55.00;;;;;;6265875;28;20407;-75
2023/06/20 08:38:45;;;;;;;24.30;22.37;;;26.80;55.50;;;;;;6265289;28;20427;-75
2023/06/20 08:41:51;;;;;;;29.87;27.10;;;26.70;55.70;;;;;;6275946;28;20253;-76
2023/06/20 08:44:56;;;;;;;29.93;27.23;;;26.70;55.90;;;;;;6267925;28;20240;-75
2023/06/20 08:48:01;;;;;;;26.20;23.97;;;26.70;56.50;;;;;;6265663;28;20241;-76
2023/06/20 08:51:04;;;;;;;26.80;24.30;;;26.60;56.50;;;;;;6273604;28;20329;-75
2023/06/20 08:54:13;;;;;;;28.53;25.93;;;26.70;56.70;;;;;;6279710;28;20300;-76
2023/06/20 08:57:18;;;;;;;31.13;28.40;;;26.60;56.70;;;;;;6264863;28;20702;-75
2023/06/20 09:00:22;;;;;;;29.53;26.57;;;26.70;56.10;;;;;;6272320;28;20847;-77
2023/06/20 09:03:26;;;;;;;30.60;27.73;;;26.60;56.40;;;;;;6268489;28;20760;-77
2023/06/20 09:06:37;;;;;;;29.33;26.73;;;26.40;57.00;;;;;;6277949;28;20829;-76
2023/06/20 09:09:42;;;;;;;31.40;28.70;;;26.40;57.20;;;;;;6283517;28;20303;-75
2023/06/20 09:12:47;;;;;;;29.50;27.10;;;26.30;57.20;;;;;;6271660;28;20334;-74
2023/06/20 09:15:50;;;;;;;34.10;31.03;;;26.20;57.70;;;;;;6282943;28;20773;-75
2023/06/20 09:18:59;;;;;;;35.77;32.63;;;26.00;57.50;;;;;;6277901;28;20316;-76
2023/06/20 09:22:06;;;;;;;33.67;30.43;;;25.60;57.80;;;;;;6258252;28;20829;-78
2023/06/20 09:25:21;;;;;;;32.73;29.73;;;25.30;58.60;;;;;;6279504;28;20249;-75
2023/06/20 09:28:24;;;;;;;34.83;31.53;;;25.00;59.10;;;;;;6265778;28;20238;-77
2023/06/20 09:31:27;;;;;;;32.47;29.60;;;24.80;59.50;;;;;;6279145;28;20302;-76
2023/06/20 09:34:38;;;;;;;31.37;28.77;;;24.60;59.80;;;;;;6265597;28;20252;-77
2023/06/20 09:37:42;;;;;;;31.80;28.93;;;24.00;62.00;;;;;;6271998;28;20234;-77
2023/06/20 09:40:47;;;;;;;31.00;28.40;;;23.30;64.10;;;;;;6266973;28;20267;-80
2023/06/20 09:43:50;;;;;;;33.50;30.63;;;22.90;65.50;;;;;;6273832;28;20234;-80
2023/06/20 09:46:54;;;;;;;33.20;29.87;;;22.50;66.70;;;;;;6256552;28;20241;-81
2023/06/20 09:49:58;;;;;;;33.13;30.03;;;22.40;68.00;;;;;;6288656;28;20308;-81
2023/06/20 09:53:05;;;;;;;33.43;30.37;;;22.20;68.60;;;;;;6278265;28;20377;-80
2023/06/20 09:56:11;;;;;;;32.57;29.37;;;22.10;69.70;;;;;;6270992;28;21086;-79
2023/06/20 09:59:16;;;;;;;35.00;31.60;;;21.90;69.80;;;;;;6267949;28;20261;-80
2023/06/20 10:02:23;;;;;;;34.80;31.80;;;21.90;69.90;;;;;;6276208;28;20286;-80
2023/06/20 10:05:29;;;;;;;35.30;32.23;;;21.70;70.40;;;;;;6266670;28;20237;-80
2023/06/20 10:08:32;;;;;;;34.27;31.10;;;21.60;70.80;;;;;;6272947;28;20233;-77
2023/06/20 10:11:38;;;;;;;31.77;28.70;;;21.50;71.20;;;;;;6255562;28;20237;-80
2023/06/20 10:14:41;;;;;;;33.00;30.00;;;21.40;71.60;;;;;;6267907;28;20234;-81
2023/06/20 10:17:47;;;;;;;33.37;29.97;;;21.30;72.10;;;;;;6267944;28;20256;-80
2023/06/20 10:20:50;;;;;;;34.23;31.07;;;21.30;72.10;;;;;;6263705;28;20238;-81
2023/06/20 10:23:53;;;;;;;34.73;31.57;;;21.30;72.90;;;;;;6269316;28;20225;-79
2023/06/20 10:27:00;;;;;;;35.27;31.97;;;21.20;73.30;;;;;;6273952;28;20256;-80
2023/06/20 10:30:06;;;;;;;36.63;33.33;;;21.10;73.50;;;;;;6271685;28;20257;-79
2023/06/20 10:33:10;;;;;;;34.80;31.43;;;21.10;73.60;;;;;;6261669;28;20238;-79
2023/06/20 10:36:17;;;;;;;35.30;31.90;;;21.10;73.80;;;;;;6268819;28;20249;-78
2023/06/20 10:39:20;;;;;;;34.90;31.80;;;21.10;74.10;;;;;;6277972;28;20234;-80
2023/06/20 10:42:41;;;;;;;34.60;31.30;;;20.90;74.50;;;;;;6270937;28;20248;-80
2023/06/20 10:45:53;;;;;;;34.63;31.53;;;20.90;75.00;;;;;;6259793;28;20234;-80
2023/06/20 10:48:56;;;;;;;35.40;31.97;;;20.90;75.20;;;;;;6261002;28;20236;-80
2023/06/20 10:52:01;;;;;;;37.70;34.10;;;20.90;75.30;;;;;;6264400;28;20322;-79
2023/06/20 10:55:08;;;;;;;34.87;31.37;;;20.90;75.90;;;;;;6263496;28;20241;-81
2023/06/20 10:58:12;;;;;;;36.93;33.40;;;20.90;75.90;;;;;;6263596;28;20245;-81
2023/06/20 11:01:30;;;;;;;32.27;29.27;;;20.90;76.00;;;;;;6268361;28;20238;-80
2023/06/20 11:04:34;;;;;;;34.83;31.77;;;20.90;75.90;;;;;;6268148;28;20233;-81
2023/06/20 11:07:51;;;;;;;36.57;33.17;;;20.90;76.10;;;;;;6267096;28;20240;-79
2023/06/20 11:10:55;;;;;;;38.97;35.23;;;20.90;76.10;;;;;;6260797;28;20543;-78
2023/06/20 11:14:15;;;;;;;34.43;31.43;;;21.00;76.50;;;;;;6258772;27;1358995;-78
2023/06/20 11:17:18;;;;;;;36.53;33.20;;;21.10;76.60;;;;;;6328481;28;20239;-78
2023/06/20 11:20:23;;;;;;;36.50;33.17;;;21.10;76.90;;;;;;6323637;28;20708;-76
2023/06/20 11:23:35;;;;;;;37.47;33.93;;;21.30;76.80;;;;;;6286674;28;20237;-79
2023/06/20 11:26:38;;;;;;;42.13;37.60;;;21.50;76.60;;;;;;6294449;28;20241;-76
2023/06/20 11:29:43;;;;;;;38.07;34.00;;;21.50;76.30;;;;;;6294260;28;20882;-78
2023/06/20 11:33:02;;;;;;;40.47;36.50;;;21.60;75.70;;;;;;6293090;28;20243;-77
2023/06/20 11:36:06;;;;;;;35.40;32.30;;;21.70;75.40;;;;;;6299726;28;20700;-77
2023/06/20 11:39:14;;;;;;;37.17;33.90;;;21.70;75.40;;;;;;6297387;28;20368;-78
2023/06/20 11:42:18;;;;;;;33.93;30.97;;;21.80;75.50;;;;;;6277532;28;20314;-77
2023/06/20 11:45:26;;;;;;;32.90;30.03;;;22.00;75.60;;;;;;6279406;28;20310;-78
2023/06/20 11:48:30;;;;;;;36.90;33.80;;;22.10;75.10;;;;;;6289093;28;20245;-78
2023/06/20 11:51:33;;;;;;;33.77;30.97;;;22.30;74.80;;;;;;6307225;28;20335;-77
2023/06/20 11:54:49;;;;;;;34.03;30.97;;;22.30;74.60;;;;;;6290942;28;20753;-77
2023/06/20 11:57:53;;;;;;;31.00;28.50;;;22.40;74.40;;;;;;6281968;28;20230;-79
2023/06/20 12:01:10;;;;;;;37.93;34.53;;;22.50;74.00;;;;;;6284612;28;20777;-80
2023/06/20 12:04:19;;;;;;;35.20;31.63;;;22.70;73.00;;;;;;6301030;28;20225;-77
2023/06/20 12:07:22;;;;;;;35.77;32.60;;;22.70;72.80;;;;;;6272106;28;20680;-78
2023/06/20 12:10:28;;;;;;;35.57;32.67;;;22.80;72.60;;;;;;6279226;28;20450;-78
2023/06/20 12:13:33;;;;;;;36.67;33.37;;;22.80;72.40;;;;;;6267911;28;20249;-75
2023/06/20 12:16:37;;;;;;;35.50;32.00;;;22.80;72.20;;;;;;6282922;28;20260;-76
2023/06/20 12:19:52;;;;;;;33.37;30.57;;;22.90;71.80;;;;;;6279447;28;20886;-78
2023/06/20 12:22:55;;;;;;;31.17;28.37;;;23.00;71.80;;;;;;6268014;28;21001;-77
2023/06/20 12:25:58;;;;;;;31.83;29.10;;;23.30;71.60;;;;;;6265367;28;20231;-79
2023/06/20 12:29:02;;;;;;;32.87;29.83;;;23.70;71.50;;;;;;6257896;28;20252;-77
2023/06/20 12:32:08;;;;;;;28.93;26.57;;;24.20;70.10;;;;;;6253404;28;20316;-79
2023/06/20 12:35:11;;;;;;;33.27;30.37;;;24.60;69.90;;;;;;6262271;28;20238;-78
2023/06/20 12:38:15;;;;;;;34.50;31.50;;;25.00;67.70;;;;;;6257720;28;20230;-77
2023/06/20 12:41:18;;;;;;;28.33;25.87;;;25.20;66.50;;;;;;6248141;28;20327;-79
2023/06/20 12:44:21;;;;;;;27.00;24.80;;;25.20;66.00;;;;;;6262974;28;20234;-78
2023/06/20 12:47:28;;;;;;;24.07;22.37;;;25.50;66.30;;;;;;6276646;28;20264;-79
2023/06/20 12:50:32;;;;;;;28.10;25.43;;;25.60;66.40;;;;;;6283553;28;20704;-77
2023/06/20 12:53:36;;;;;;;26.13;24.13;;;25.90;65.90;;;;;;6275149;28;20240;-78
2023/06/20 12:56:40;;;;;;;23.73;21.93;;;26.10;64.80;;;;;;6272178;28;20360;-77
2023/06/20 12:59:44;;;;;;;25.63;23.53;;;26.40;64.50;;;;;;6275116;28;20245;-77
2023/06/20 13:02:48;;;;;;;23.37;21.60;;;26.40;63.90;;;;;;6281452;28;20735;-78
2023/06/20 13:05:51;;;;;;;26.70;24.40;;;26.50;63.90;;;;;;6275826;28;20233;-77
2023/06/20 13:08:55;;;;;;;21.77;20.17;;;26.60;63.60;;;;;;6276122;28;20230;-79
2023/06/20 13:11:58;;;;;;;25.30;23.50;;;26.80;63.60;;;;;;6271747;28;20246;-77
2023/06/20 13:15:02;;;;;;;27.03;24.83;;;27.00;62.10;;;;;;6278520;28;20287;-78
2023/06/20 13:18:15;;;;;;;24.17;22.40;;;27.00;62.70;;;;;;6281976;28;20391;-78
2023/06/20 13:21:18;;;;;;;24.37;22.40;;;27.00;62.60;;;;;;6279963;28;20253;-78
2023/06/20 13:24:21;;;;;;;24.57;22.77;;;26.90;62.10;;;;;;6269913;28;20234;-79
2023/06/20 13:27:26;;;;;;;24.77;22.87;;;26.80;62.10;;;;;;6283845;28;20237;-79
2023/06/20 13:30:29;;;;;;;23.53;21.73;;;26.80;62.80;;;;;;6276028;28;20242;-77
2023/06/20 13:33:34;;;;;;;23.60;21.70;;;26.80;63.10;;;;;;6288349;28;20812;-77
2023/06/20 13:36:37;;;;;;;25.30;23.10;;;26.80;62.80;;;;;;6284390;28;20245;-78
2023/06/20 13:39:41;;;;;;;23.17;21.23;;;26.80;62.40;;;;;;6283300;28;20866;-77
2023/06/20 13:42:48;;;;;;;21.37;19.77;;;26.70;63.20;;;;;;6282931;28;20229;-79
2023/06/20 13:45:54;;;;;;;22.67;20.77;;;26.70;63.30;;;;;;6271104;28;20238;-77
2023/06/20 13:48:58;;;;;;;23.63;21.83;;;26.70;63.00;;;;;;6282159;28;20237;-77
2023/06/20 13:52:01;;;;;;;22.40;20.60;;;26.70;63.00;;;;;;6271872;28;20244;-79
2023/06/20 13:55:06;;;;;;;22.27;20.47;;;26.80;63.40;;;;;;6265155;28;20651;-78
2023/06/20 13:58:09;;;;;;;20.37;18.87;;;26.90;63.60;;;;;;6288013;28;20237;-78
2023/06/20 14:01:13;;;;;;;21.60;19.77;;;27.20;63.30;;;;;;6282640;28;20317;-77
2023/06/20 14:04:17;;;;;;;22.97;21.33;;;27.50;62.60;;;;;;6265743;28;20233;-78
2023/06/20 14:07:21;;;;;;;23.57;21.83;;;27.80;61.50;;;;;;6268581;28;20269;-79
2023/06/20 14:10:24;;;;;;;23.57;21.73;;;27.90;60.50;;;;;;6265753;28;20240;-78
2023/06/20 14:13:27;;;;;;;23.93;22.23;;;27.50;60.50;;;;;;6285909;28;20245;-78
2023/06/20 14:16:31;;;;;;;23.57;21.77;;;27.40;61.30;;;;;;6291823;28;20249;-78
2023/06/20 14:19:35;;;;;;;23.20;21.50;;;27.30;61.70;;;;;;6285750;28;20524;-77
2023/06/20 14:22:39;;;;;;;22.47;20.60;;;27.20;61.90;;;;;;6277868;28;20241;-79
2023/06/20 14:25:42;;;;;;;22.07;20.37;;;27.20;62.50;;;;;;6267032;28;20617;-79
2023/06/20 14:28:46;;;;;;;20.57;19.07;;;27.20;61.50;;;;;;6278983;28;20247;-79
2023/06/20 14:31:49;;;;;;;20.07;18.47;;;27.50;60.90;;;;;;6286128;28;20229;-79
2023/06/20 14:34:53;;;;;;;20.20;18.67;;;27.90;60.60;;;;;;6281391;28;20315;-78
2023/06/20 14:37:57;;;;;;;19.80;18.27;;;28.30;60.00;;;;;;6283534;28;20237;-76
2023/06/20 14:41:01;;;;;;;18.23;16.83;;;28.40;59.30;;;;;;6291531;28;20241;-79
2023/06/20 14:44:04;;;;;;;16.48;15.27;;;28.50;58.70;;;;;;6287860;28;20720;-78
2023/06/20 14:47:09;;;;;;;17.35;15.93;;;28.60;58.10;;;;;;6275249;28;20249;-77
2023/06/20 14:50:14;;;;;;;16.87;15.67;;;28.50;58.00;;;;;;6266861;28;20238;-76
2023/06/20 14:53:17;;;;;;;20.02;18.27;;;28.30;58.00;;;;;;6261591;28;20245;-77
2023/06/20 14:56:20;;;;;;;18.60;17.00;;;28.30;58.40;;;;;;6258333;28;20291;-77
2023/06/20 14:59:25;;;;;;;15.93;14.83;;;28.40;57.60;;;;;;6253043;28;20244;-78
2023/06/20 15:02:28;;;;;;;21.87;20.13;;;28.40;58.30;;;;;;6242956;28;20234;-77
2023/06/20 15:05:33;;;;;;;19.23;17.70;;;28.40;58.60;;;;;;6277210;28;20236;-76
2023/06/20 15:08:36;;;;;;;22.07;20.30;;;28.50;58.30;;;;;;6273634;28;20316;-77
2023/06/20 15:11:39;;;;;;;20.13;18.53;;;28.50;58.30;;;;;;6259026;28;20709;-77
2023/06/20 15:14:42;;;;;;;18.80;17.50;;;28.20;59.10;;;;;;6251346;28;20238;-79
2023/06/20 15:17:45;;;;;;;18.50;17.15;;;28.30;58.90;;;;;;6242316;28;20248;-76
2023/06/20 15:20:50;;;;;;;18.50;17.13;;;28.30;57.70;;;;;;6258545;28;20316;-77
2023/06/20 15:23:53;;;;;;;17.73;16.53;;;28.10;58.30;;;;;;6252582;28;20242;-79
2023/06/20 15:26:57;;;;;;;18.37;16.77;;;27.70;58.80;;;;;;6258448;28;20348;-78
2023/06/20 15:30:00;;;;;;;17.70;16.53;;;27.70;58.80;;;;;;6260424;28;20276;-77
2023/06/20 15:33:03;;;;;;;16.10;15.10;;;27.80;58.70;;;;;;6259014;28;20238;-78
2023/06/20 15:36:09;;;;;;;15.13;13.87;;;27.90;58.60;;;;;;6255114;28;20746;-78
2023/06/20 15:39:12;;;;;;;14.30;13.20;;;28.00;58.60;;;;;;6252940;28;20747;-79
2023/06/20 15:42:15;;;;;;;14.80;13.60;;;28.00;58.20;;;;;;6255821;28;20234;-79